sensor_id;sensor_type;location;lat;lon;timestamp;temperature;humidity
43143;DHT22;28750;59.842;17.584;2023-01-01T00:01:18;1.90;99.90
43143;DHT22;28750;59.842;17.584;2023-01-01T00:03:56;1.90;99.90
43143;DHT22;28750;59.842;17.584;2023-01-01T00:06:24;1.90;99.90
43143;DHT22;28750;59.842;17.584;2023-01-01T00:08:51;1.90;99.90
43143;DHT22;28750;59.842;17.584;2023-01-01T00:11:38;1.80;99.90
43143;DHT22;28750;59.842;17.584;2023-01-01T00:14:04;1.80;99.90
43143;DHT22;28750;59.842;17.584;2023-01-01T00:16:31;1.80;99.90
43143;DHT22;28750;59.842;17.584;2023-01-01T00:18:58;1.80;99.90
43143;DHT22;28750;59.842;17.584;2023-01-01T00:21:25;1.70;99.90
43143;DHT22;28750;59.842;17.584;2023-01-01T00:23:52;1.80;99.90
43143;DHT22;28750;59.842;17.584;2023-01-01T00:26:18;1.70;99.90
43143;DHT22;28750;59.842;17.584;2023-01-01T00:28:45;1.70;99.90
43143;DHT22;28750;59.842;17.584;2023-01-01T00:31:16;1.70;99.90
43143;DHT22;28750;59.842;17.584;2023-01-01T00:33:53;1.70;99.90
43143;DHT22;28750;59.842;17.584;2023-01-01T00:36:21;1.70;99.90
43143;DHT22;28750;59.842;17.584;2023-01-01T00:38:49;1.70;99.90
43143;DHT22;28750;59.842;17.584;2023-01-01T00:41:16;1.70;99.90
43143;DHT22;28750;59.842;17.584;2023-01-01T00:43:44;1.70;99.90
43143;DHT22;28750;59.842;17.584;2023-01-01T00:46:11;1.70;99.90
43143;DHT22;28750;59.842;17.584;2023-01-01T00:48:39;1.50;99.90
43143;DHT22;28750;59.842;17.584;2023-01-01T00:51:06;1.50;99.90
43143;DHT22;28750;59.842;17.584;2023-01-01T00:53:33;1.40;99.90
43143;DHT22;28750;59.842;17.584;2023-01-01T00:56:00;1.50;99.90
43143;DHT22;28750;59.842;17.584;2023-01-01T00:58:27;1.60;99.90
43143;DHT22;28750;59.842;17.584;2023-01-01T01:00:54;1.60;99.90
43143;DHT22;28750;59.842;17.584;2023-01-01T01:03:21;1.60;99.90
43143;DHT22;28750;59.842;17.584;2023-01-01T01:06:05;1.50;99.90
43143;DHT22;28750;59.842;17.584;2023-01-01T01:08:35;1.60;99.90
43143;DHT22;28750;59.842;17.584;2023-01-01T01:13:34;1.50;99.90
43143;DHT22;28750;59.842;17.584;2023-01-01T01:16:06;1.60;99.90
43143;DHT22;28750;59.842;17.584;2023-01-01T01:18:33;1.60;99.90
43143;DHT22;28750;59.842;17.584;2023-01-01T01:21:00;1.60;99.90
43143;DHT22;28750;59.842;17.584;2023-01-01T01:23:27;1.60;99.90
43143;DHT22;28750;59.842;17.584;2023-01-01T01:25:54;1.50;99.90
43143;DHT22;28750;59.842;17.584;2023-01-01T01:28:21;1.40;99.90
43143;DHT22;28750;59.842;17.584;2023-01-01T01:30:47;1.40;99.90
43143;DHT22;28750;59.842;17.584;2023-01-01T01:33:15;1.40;99.90
43143;DHT22;28750;59.842;17.584;2023-01-01T01:35:48;1.30;99.90
43143;DHT22;28750;59.842;17.584;2023-01-01T01:38:15;1.20;99.90
43143;DHT22;28750;59.842;17.584;2023-01-01T01:40:42;1.20;99.90
43143;DHT22;28750;59.842;17.584;2023-01-01T01:48:40;1.20;99.90
43143;DHT22;28750;59.842;17.584;2023-01-01T01:51:09;1.20;99.90
43143;DHT22;28750;59.842;17.584;2023-01-01T01:53:41;1.20;99.90
43143;DHT22;28750;59.842;17.584;2023-01-01T01:56:09;1.20;99.90
43143;DHT22;28750;59.842;17.584;2023-01-01T01:58:38;1.20;99.90
43143;DHT22;28750;59.842;17.584;2023-01-01T02:01:05;1.20;99.90
43143;DHT22;28750;59.842;17.584;2023-01-01T02:03:44;1.10;99.90
43143;DHT22;28750;59.842;17.584;2023-01-01T02:06:14;1.00;99.90
43143;DHT22;28750;59.842;17.584;2023-01-01T02:08:41;1.00;99.90
43143;DHT22;28750;59.842;17.584;2023-01-01T02:11:08;1.20;99.90
43143;DHT22;28750;59.842;17.584;2023-01-01T02:13:35;1.10;99.90
43143;DHT22;28750;59.842;17.584;2023-01-01T02:27:53;1.10;99.90
43143;DHT22;28750;59.842;17.584;2023-01-01T02:30:25;0.90;99.90
43143;DHT22;28750;59.842;17.584;2023-01-01T02:33:02;1.00;99.90
43143;DHT22;28750;59.842;17.584;2023-01-01T02:35:44;0.90;99.90
43143;DHT22;28750;59.842;17.584;2023-01-01T02:41:29;0.90;99.90
43143;DHT22;28750;59.842;17.584;2023-01-01T02:43:57;1.00;99.90
43143;DHT22;28750;59.842;17.584;2023-01-01T02:46:33;1.00;99.90
43143;DHT22;28750;59.842;17.584;2023-01-01T02:49:01;0.80;99.90
43143;DHT22;28750;59.842;17.584;2023-01-01T02:51:41;0.90;99.90
43143;DHT22;28750;59.842;17.584;2023-01-01T02:57:07;0.70;99.90
43143;DHT22;28750;59.842;17.584;2023-01-01T02:59:47;0.70;99.90
43143;DHT22;28750;59.842;17.584;2023-01-01T03:05:47;0.70;99.90
43143;DHT22;28750;59.842;17.584;2023-01-01T03:14:44;0.50;99.90
43143;DHT22;28750;59.842;17.584;2023-01-01T03:17:20;0.40;99.90
43143;DHT22;28750;59.842;17.584;2023-01-01T03:19:51;0.30;99.90
43143;DHT22;28750;59.842;17.584;2023-01-01T03:22:23;0.20;99.90
43143;DHT22;28750;59.842;17.584;2023-01-01T03:24:55;0.20;99.90
43143;DHT22;28750;59.842;17.584;2023-01-01T03:27:29;0.10;99.90
43143;DHT22;28750;59.842;17.584;2023-01-01T03:30:00;0.20;99.90
43143;DHT22;28750;59.842;17.584;2023-01-01T03:32:38;0.20;99.90
43143;DHT22;28750;59.842;17.584;2023-01-01T03:35:26;0.20;99.90
43143;DHT22;28750;59.842;17.584;2023-01-01T03:37:57;0.20;99.90
43143;DHT22;28750;59.842;17.584;2023-01-01T03:40:27;0.20;99.90
43143;DHT22;28750;59.842;17.584;2023-01-01T03:43:02;0.30;99.90
43143;DHT22;28750;59.842;17.584;2023-01-01T03:45:40;0.20;99.90
43143;DHT22;28750;59.842;17.584;2023-01-01T03:48:10;0.00;99.90
43143;DHT22;28750;59.842;17.584;2023-01-01T03:51:06;0.00;99.90
43143;DHT22;28750;59.842;17.584;2023-01-01T03:53:40;0.10;99.90
43143;DHT22;28750;59.842;17.584;2023-01-01T03:59:06;0.10;99.90
43143;DHT22;28750;59.842;17.584;2023-01-01T04:01:39;0.20;99.90
43143;DHT22;28750;59.842;17.584;2023-01-01T04:04:08;0.30;99.90
43143;DHT22;28750;59.842;17.584;2023-01-01T04:06:36;0.20;99.90
43143;DHT22;28750;59.842;17.584;2023-01-01T04:09:03;0.10;99.90
43143;DHT22;28750;59.842;17.584;2023-01-01T04:11:35;0.30;99.90
43143;DHT22;28750;59.842;17.584;2023-01-01T04:14:46;0.20;99.90
43143;DHT22;28750;59.842;17.584;2023-01-01T04:17:13;0.10;99.90
43143;DHT22;28750;59.842;17.584;2023-01-01T04:19:40;0.20;99.90
43143;DHT22;28750;59.842;17.584;2023-01-01T04:22:07;0.10;99.90
43143;DHT22;28750;59.842;17.584;2023-01-01T04:24:34;0.00;99.90
43143;DHT22;28750;59.842;17.584;2023-01-01T04:27:01;0.00;99.90
43143;DHT22;28750;59.842;17.584;2023-01-01T04:29:28;0.10;99.90
43143;DHT22;28750;59.842;17.584;2023-01-01T04:31:55;0.20;99.90
43143;DHT22;28750;59.842;17.584;2023-01-01T04:34:22;0.00;99.90
43143;DHT22;28750;59.842;17.584;2023-01-01T04:36:49;0.00;99.90
43143;DHT22;28750;59.842;17.584;2023-01-01T04:39:16;0.00;99.90
43143;DHT22;28750;59.842;17.584;2023-01-01T04:41:43;0.00;99.90
43143;DHT22;28750;59.842;17.584;2023-01-01T04:44:09;-0.10;99.90
43143;DHT22;28750;59.842;17.584;2023-01-01T04:46:36;-0.20;99.90
43143;DHT22;28750;59.842;17.584;2023-01-01T04:49:03;-0.10;99.90
43143;DHT22;28750;59.842;17.584;2023-01-01T04:51:30;-0.30;99.90
43143;DHT22;28750;59.842;17.584;2023-01-01T04:53:58;-0.30;99.90
43143;DHT22;28750;59.842;17.584;2023-01-01T04:56:27;-0.30;99.90
43143;DHT22;28750;59.842;17.584;2023-01-01T04:58:54;-0.20;99.90
43143;DHT22;28750;59.842;17.584;2023-01-01T05:01:27;-0.10;99.90
43143;DHT22;28750;59.842;17.584;2023-01-01T05:03:55;-0.10;99.90
43143;DHT22;28750;59.842;17.584;2023-01-01T05:06:23;-0.10;99.90
43143;DHT22;28750;59.842;17.584;2023-01-01T05:08:51;-0.10;99.90
43143;DHT22;28750;59.842;17.584;2023-01-01T05:11:21;-0.20;99.90
43143;DHT22;28750;59.842;17.584;2023-01-01T05:13:50;-0.30;99.90
43143;DHT22;28750;59.842;17.584;2023-01-01T05:16:20;-0.20;99.90
43143;DHT22;28750;59.842;17.584;2023-01-01T05:18:48;-0.20;99.90
43143;DHT22;28750;59.842;17.584;2023-01-01T05:21:24;-0.30;99.90
43143;DHT22;28750;59.842;17.584;2023-01-01T05:23:56;-0.30;99.90
43143;DHT22;28750;59.842;17.584;2023-01-01T05:26:26;-0.40;99.90
43143;DHT22;28750;59.842;17.584;2023-01-01T05:28:54;-0.60;99.90
43143;DHT22;28750;59.842;17.584;2023-01-01T05:31:24;-0.50;99.90
43143;DHT22;28750;59.842;17.584;2023-01-01T05:33:51;-0.50;99.90
43143;DHT22;28750;59.842;17.584;2023-01-01T05:36:21;-0.50;99.90
43143;DHT22;28750;59.842;17.584;2023-01-01T05:38:49;-0.60;99.90
43143;DHT22;28750;59.842;17.584;2023-01-01T05:41:17;-0.60;99.90
43143;DHT22;28750;59.842;17.584;2023-01-01T05:43:45;-0.60;99.90
43143;DHT22;28750;59.842;17.584;2023-01-01T05:46:19;-0.60;99.90
43143;DHT22;28750;59.842;17.584;2023-01-01T05:48:46;-0.60;99.90
43143;DHT22;28750;59.842;17.584;2023-01-01T05:51:16;-0.50;99.90
43143;DHT22;28750;59.842;17.584;2023-01-01T05:53:44;-0.50;99.90
43143;DHT22;28750;59.842;17.584;2023-01-01T05:56:12;-0.50;99.90
43143;DHT22;28750;59.842;17.584;2023-01-01T05:58:40;-0.50;99.90
43143;DHT22;28750;59.842;17.584;2023-01-01T06:03:37;-0.50;99.90
43143;DHT22;28750;59.842;17.584;2023-01-01T06:06:05;-0.50;99.90
43143;DHT22;28750;59.842;17.584;2023-01-01T06:08:33;-0.60;99.90
43143;DHT22;28750;59.842;17.584;2023-01-01T06:11:02;-0.50;99.90
43143;DHT22;28750;59.842;17.584;2023-01-01T06:13:30;-0.80;99.90
43143;DHT22;28750;59.842;17.584;2023-01-01T06:15:58;-1.00;99.90
43143;DHT22;28750;59.842;17.584;2023-01-01T06:18:29;-0.90;99.90
43143;DHT22;28750;59.842;17.584;2023-01-01T06:21:07;-0.70;99.90
43143;DHT22;28750;59.842;17.584;2023-01-01T06:23:34;-0.70;99.90
43143;DHT22;28750;59.842;17.584;2023-01-01T06:26:13;-0.70;99.90
43143;DHT22;28750;59.842;17.584;2023-01-01T06:28:41;-0.60;99.90
43143;DHT22;28750;59.842;17.584;2023-01-01T06:31:10;-0.70;99.90
43143;DHT22;28750;59.842;17.584;2023-01-01T06:33:38;-0.70;99.90
43143;DHT22;28750;59.842;17.584;2023-01-01T06:36:07;-0.70;99.90
43143;DHT22;28750;59.842;17.584;2023-01-01T06:38:38;-0.70;99.90
43143;DHT22;28750;59.842;17.584;2023-01-01T06:41:11;-0.70;99.90
43143;DHT22;28750;59.842;17.584;2023-01-01T06:43:39;-0.60;99.90
43143;DHT22;28750;59.842;17.584;2023-01-01T06:48:40;-0.60;99.90
43143;DHT22;28750;59.842;17.584;2023-01-01T06:51:13;-0.70;99.90
43143;DHT22;28750;59.842;17.584;2023-01-01T06:53:40;-0.60;99.90
43143;DHT22;28750;59.842;17.584;2023-01-01T06:56:07;-0.60;99.90
43143;DHT22;28750;59.842;17.584;2023-01-01T06:58:35;-0.70;99.90
43143;DHT22;28750;59.842;17.584;2023-01-01T07:01:08;-0.70;99.90
43143;DHT22;28750;59.842;17.584;2023-01-01T07:03:37;-0.80;99.90
43143;DHT22;28750;59.842;17.584;2023-01-01T07:06:04;-0.70;99.90
43143;DHT22;28750;59.842;17.584;2023-01-01T07:08:31;-0.90;99.90
43143;DHT22;28750;59.842;17.584;2023-01-01T07:10:58;-0.90;99.90
43143;DHT22;28750;59.842;17.584;2023-01-01T07:13:26;-0.90;99.90
43143;DHT22;28750;59.842;17.584;2023-01-01T07:15:54;-1.00;99.90
43143;DHT22;28750;59.842;17.584;2023-01-01T07:18:22;-0.90;99.90
43143;DHT22;28750;59.842;17.584;2023-01-01T07:20:55;-0.80;99.90
43143;DHT22;28750;59.842;17.584;2023-01-01T07:23:24;-0.70;99.90
43143;DHT22;28750;59.842;17.584;2023-01-01T07:25:52;-0.70;99.90
43143;DHT22;28750;59.842;17.584;2023-01-01T07:28:20;-0.80;99.90
43143;DHT22;28750;59.842;17.584;2023-01-01T07:30:47;-0.80;99.90
43143;DHT22;28750;59.842;17.584;2023-01-01T07:33:19;-0.80;99.90
43143;DHT22;28750;59.842;17.584;2023-01-01T07:35:46;-0.80;99.90
43143;DHT22;28750;59.842;17.584;2023-01-01T07:38:14;-0.80;99.90
43143;DHT22;28750;59.842;17.584;2023-01-01T07:40:41;-0.90;99.90
43143;DHT22;28750;59.842;17.584;2023-01-01T07:43:08;-1.00;99.90
43143;DHT22;28750;59.842;17.584;2023-01-01T07:45:36;-1.10;99.90
43143;DHT22;28750;59.842;17.584;2023-01-01T07:48:03;-1.00;99.90
43143;DHT22;28750;59.842;17.584;2023-01-01T07:50:32;-1.00;99.90
43143;DHT22;28750;59.842;17.584;2023-01-01T07:53:00;-1.00;99.90
43143;DHT22;28750;59.842;17.584;2023-01-01T07:55:27;-1.10;99.90
43143;DHT22;28750;59.842;17.584;2023-01-01T07:57:54;-1.10;99.90
43143;DHT22;28750;59.842;17.584;2023-01-01T08:00:21;-1.10;99.90
43143;DHT22;28750;59.842;17.584;2023-01-01T08:02:48;-1.10;99.90
43143;DHT22;28750;59.842;17.584;2023-01-01T08:05:15;-1.00;99.90
43143;DHT22;28750;59.842;17.584;2023-01-01T08:07:47;-1.00;99.90
43143;DHT22;28750;59.842;17.584;2023-01-01T08:10:16;-1.00;99.90
43143;DHT22;28750;59.842;17.584;2023-01-01T08:12:45;-1.00;99.90
43143;DHT22;28750;59.842;17.584;2023-01-01T08:15:12;-1.00;99.90
43143;DHT22;28750;59.842;17.584;2023-01-01T08:17:39;-0.90;99.90
43143;DHT22;28750;59.842;17.584;2023-01-01T08:20:06;-0.90;99.90
43143;DHT22;28750;59.842;17.584;2023-01-01T08:22:33;-0.90;99.90
43143;DHT22;28750;59.842;17.584;2023-01-01T08:25:00;-0.90;99.90
43143;DHT22;28750;59.842;17.584;2023-01-01T08:27:27;-0.80;99.90
43143;DHT22;28750;59.842;17.584;2023-01-01T08:29:54;-0.70;99.90
43143;DHT22;28750;59.842;17.584;2023-01-01T08:32:21;-0.60;99.90
43143;DHT22;28750;59.842;17.584;2023-01-01T08:34:48;-0.50;99.90
43143;DHT22;28750;59.842;17.584;2023-01-01T08:37:15;-0.50;99.90
43143;DHT22;28750;59.842;17.584;2023-01-01T08:39:42;-0.40;99.90
43143;DHT22;28750;59.842;17.584;2023-01-01T08:42:08;-0.40;99.90
43143;DHT22;28750;59.842;17.584;2023-01-01T08:44:35;-0.30;99.90
43143;DHT22;28750;59.842;17.584;2023-01-01T08:47:02;-0.20;99.90
43143;DHT22;28750;59.842;17.584;2023-01-01T08:49:29;-0.20;99.90
43143;DHT22;28750;59.842;17.584;2023-01-01T08:51:56;-0.30;99.90
43143;DHT22;28750;59.842;17.584;2023-01-01T08:54:23;-0.30;99.90
43143;DHT22;28750;59.842;17.584;2023-01-01T08:56:50;-0.30;99.90
43143;DHT22;28750;59.842;17.584;2023-01-01T08:59:16;-0.30;99.90
43143;DHT22;28750;59.842;17.584;2023-01-01T09:01:43;-0.30;99.90
43143;DHT22;28750;59.842;17.584;2023-01-01T09:04:10;-0.20;99.90
43143;DHT22;28750;59.842;17.584;2023-01-01T09:06:37;0.00;99.90
43143;DHT22;28750;59.842;17.584;2023-01-01T09:09:04;0.20;99.90
43143;DHT22;28750;59.842;17.584;2023-01-01T09:11:31;0.40;99.90
43143;DHT22;28750;59.842;17.584;2023-01-01T09:13:58;0.80;99.90
43143;DHT22;28750;59.842;17.584;2023-01-01T09:16:25;0.90;99.90
43143;DHT22;28750;59.842;17.584;2023-01-01T09:18:52;0.80;99.90
43143;DHT22;28750;59.842;17.584;2023-01-01T09:21:19;0.80;99.90
43143;DHT22;28750;59.842;17.584;2023-01-01T09:23:46;0.70;99.90
43143;DHT22;28750;59.842;17.584;2023-01-01T09:26:13;0.80;99.90
43143;DHT22;28750;59.842;17.584;2023-01-01T09:28:40;0.60;99.90
43143;DHT22;28750;59.842;17.584;2023-01-01T09:31:06;0.50;99.90
43143;DHT22;28750;59.842;17.584;2023-01-01T09:33:33;0.50;99.90
43143;DHT22;28750;59.842;17.584;2023-01-01T09:36:13;0.50;99.90
43143;DHT22;28750;59.842;17.584;2023-01-01T09:38:40;0.40;99.90
43143;DHT22;28750;59.842;17.584;2023-01-01T09:41:40;0.50;99.90
43143;DHT22;28750;59.842;17.584;2023-01-01T09:46:42;0.50;99.90
43143;DHT22;28750;59.842;17.584;2023-01-01T09:49:16;0.60;99.90
43143;DHT22;28750;59.842;17.584;2023-01-01T09:51:50;0.60;99.90
43143;DHT22;28750;59.842;17.584;2023-01-01T09:54:54;0.30;99.90
43143;DHT22;28750;59.842;17.584;2023-01-01T09:57:29;0.40;99.90
43143;DHT22;28750;59.842;17.584;2023-01-01T09:59:58;0.40;99.90
43143;DHT22;28750;59.842;17.584;2023-01-01T10:02:34;0.40;99.90
43143;DHT22;28750;59.842;17.584;2023-01-01T10:13:52;0.50;99.90
43143;DHT22;28750;59.842;17.584;2023-01-01T10:16:38;0.60;99.90
43143;DHT22;28750;59.842;17.584;2023-01-01T10:21:53;0.50;99.90
43143;DHT22;28750;59.842;17.584;2023-01-01T10:24:42;0.50;99.90
43143;DHT22;28750;59.842;17.584;2023-01-01T10:27:38;0.50;99.90
43143;DHT22;28750;59.842;17.584;2023-01-01T10:30:32;0.40;99.90
43143;DHT22;28750;59.842;17.584;2023-01-01T10:32:59;0.40;99.90
43143;DHT22;28750;59.842;17.584;2023-01-01T10:35:33;0.40;99.90
43143;DHT22;28750;59.842;17.584;2023-01-01T10:38:03;0.40;99.90
43143;DHT22;28750;59.842;17.584;2023-01-01T10:40:31;0.40;99.90
43143;DHT22;28750;59.842;17.584;2023-01-01T10:42:59;0.30;99.90
43143;DHT22;28750;59.842;17.584;2023-01-01T10:45:33;0.30;99.90
43143;DHT22;28750;59.842;17.584;2023-01-01T10:48:16;0.30;99.90
43143;DHT22;28750;59.842;17.584;2023-01-01T10:51:00;0.30;99.90
43143;DHT22;28750;59.842;17.584;2023-01-01T10:53:28;0.30;99.90
43143;DHT22;28750;59.842;17.584;2023-01-01T10:58:52;0.30;99.90
43143;DHT22;28750;59.842;17.584;2023-01-01T11:01:25;0.40;99.90
43143;DHT22;28750;59.842;17.584;2023-01-01T11:06:35;0.50;99.90
43143;DHT22;28750;59.842;17.584;2023-01-01T11:09:26;0.60;99.90
43143;DHT22;28750;59.842;17.584;2023-01-01T11:11:57;0.70;99.90
43143;DHT22;28750;59.842;17.584;2023-01-01T11:17:27;0.90;99.90
43143;DHT22;28750;59.842;17.584;2023-01-01T11:19:59;1.00;99.90
43143;DHT22;28750;59.842;17.584;2023-01-01T11:27:43;1.10;99.90
43143;DHT22;28750;59.842;17.584;2023-01-01T11:30:28;1.00;99.90
43143;DHT22;28750;59.842;17.584;2023-01-01T11:32:59;0.90;99.90
43143;DHT22;28750;59.842;17.584;2023-01-01T11:35:30;0.90;99.90
43143;DHT22;28750;59.842;17.584;2023-01-01T11:37:58;0.80;99.90
43143;DHT22;28750;59.842;17.584;2023-01-01T11:43:02;0.90;99.90
43143;DHT22;28750;59.842;17.584;2023-01-01T11:45:38;0.80;99.90
43143;DHT22;28750;59.842;17.584;2023-01-01T11:48:17;0.80;99.90
43143;DHT22;28750;59.842;17.584;2023-01-01T11:50:54;0.70;99.90
43143;DHT22;28750;59.842;17.584;2023-01-01T11:55:52;0.70;99.90
43143;DHT22;28750;59.842;17.584;2023-01-01T12:04:37;0.50;99.90
43143;DHT22;28750;59.842;17.584;2023-01-01T12:07:23;0.50;99.90
43143;DHT22;28750;59.842;17.584;2023-01-01T12:09:58;0.50;99.90
43143;DHT22;28750;59.842;17.584;2023-01-01T12:18:51;0.30;99.90
43143;DHT22;28750;59.842;17.584;2023-01-01T12:23:49;0.40;99.90
43143;DHT22;28750;59.842;17.584;2023-01-01T12:34:29;0.30;99.90
43143;DHT22;28750;59.842;17.584;2023-01-01T12:37:21;0.30;99.90
43143;DHT22;28750;59.842;17.584;2023-01-01T12:51:12;0.20;99.90
43143;DHT22;28750;59.842;17.584;2023-01-01T13:01:31;0.20;99.90
43143;DHT22;28750;59.842;17.584;2023-01-01T13:04:06;0.20;99.90
43143;DHT22;28750;59.842;17.584;2023-01-01T13:06:45;0.30;99.90
43143;DHT22;28750;59.842;17.584;2023-01-01T13:09:23;0.20;99.90
43143;DHT22;28750;59.842;17.584;2023-01-01T13:11:57;0.10;99.90
43143;DHT22;28750;59.842;17.584;2023-01-01T13:14:24;0.10;99.90
43143;DHT22;28750;59.842;17.584;2023-01-01T13:16:56;0.10;99.90
43143;DHT22;28750;59.842;17.584;2023-01-01T13:19:31;0.10;99.90
43143;DHT22;28750;59.842;17.584;2023-01-01T13:22:34;0.10;99.90
43143;DHT22;28750;59.842;17.584;2023-01-01T13:33:29;0.10;99.90
43143;DHT22;28750;59.842;17.584;2023-01-01T13:41:42;0.00;99.90
43143;DHT22;28750;59.842;17.584;2023-01-01T13:44:21;-0.10;99.90
43143;DHT22;28750;59.842;17.584;2023-01-01T13:50:14;-0.10;99.90
43143;DHT22;28750;59.842;17.584;2023-01-01T13:53:24;-0.20;99.90
43143;DHT22;28750;59.842;17.584;2023-01-01T14:01:32;-0.20;99.90
43143;DHT22;28750;59.842;17.584;2023-01-01T14:03:54;-0.20;99.90
43143;DHT22;28750;59.842;17.584;2023-01-01T14:06:35;-0.20;99.90
43143;DHT22;28750;59.842;17.584;2023-01-01T14:09:11;-0.30;99.90
43143;DHT22;28750;59.842;17.584;2023-01-01T14:11:39;-0.30;99.90
43143;DHT22;28750;59.842;17.584;2023-01-01T14:14:25;-0.30;99.90
43143;DHT22;28750;59.842;17.584;2023-01-01T14:17:05;-0.30;99.90
43143;DHT22;28750;59.842;17.584;2023-01-01T14:19:33;-0.30;99.90
43143;DHT22;28750;59.842;17.584;2023-01-01T14:22:06;-0.30;99.90
43143;DHT22;28750;59.842;17.584;2023-01-01T14:24:40;-0.40;99.90
43143;DHT22;28750;59.842;17.584;2023-01-01T14:27:08;-0.40;99.90
43143;DHT22;28750;59.842;17.584;2023-01-01T14:29:41;-0.40;99.90
43143;DHT22;28750;59.842;17.584;2023-01-01T14:32:21;-0.50;99.90
43143;DHT22;28750;59.842;17.584;2023-01-01T14:35:01;-0.50;99.90
43143;DHT22;28750;59.842;17.584;2023-01-01T14:37:28;-0.50;99.90
43143;DHT22;28750;59.842;17.584;2023-01-01T14:42:34;-0.60;99.90
43143;DHT22;28750;59.842;17.584;2023-01-01T14:45:02;-0.60;99.90
43143;DHT22;28750;59.842;17.584;2023-01-01T14:47:32;-0.60;99.90
43143;DHT22;28750;59.842;17.584;2023-01-01T14:50:04;-0.60;99.90
43143;DHT22;28750;59.842;17.584;2023-01-01T14:52:36;-0.70;99.90
43143;DHT22;28750;59.842;17.584;2023-01-01T14:55:04;-0.70;99.90
43143;DHT22;28750;59.842;17.584;2023-01-01T14:57:33;-0.70;99.90
43143;DHT22;28750;59.842;17.584;2023-01-01T15:00:13;-0.70;99.90
43143;DHT22;28750;59.842;17.584;2023-01-01T15:02:40;-0.80;99.90
43143;DHT22;28750;59.842;17.584;2023-01-01T15:05:26;-0.70;99.90
43143;DHT22;28750;59.842;17.584;2023-01-01T15:07:59;-0.80;99.90
43143;DHT22;28750;59.842;17.584;2023-01-01T15:10:28;-0.80;99.90
43143;DHT22;28750;59.842;17.584;2023-01-01T15:12:56;-0.80;99.90
43143;DHT22;28750;59.842;17.584;2023-01-01T15:15:40;-0.90;99.90
43143;DHT22;28750;59.842;17.584;2023-01-01T15:18:42;-0.80;99.90
43143;DHT22;28750;59.842;17.584;2023-01-01T15:21:14;-0.90;99.90
43143;DHT22;28750;59.842;17.584;2023-01-01T15:26:28;-1.00;99.90
43143;DHT22;28750;59.842;17.584;2023-01-01T15:28:58;-1.10;99.90
43143;DHT22;28750;59.842;17.584;2023-01-01T15:31:45;-1.20;99.90
43143;DHT22;28750;59.842;17.584;2023-01-01T15:34:24;-1.00;99.90
43143;DHT22;28750;59.842;17.584;2023-01-01T15:36:53;-1.20;99.90
43143;DHT22;28750;59.842;17.584;2023-01-01T15:39:21;-1.40;99.90
43143;DHT22;28750;59.842;17.584;2023-01-01T15:41:51;-1.50;99.90
43143;DHT22;28750;59.842;17.584;2023-01-01T15:44:27;-1.50;99.90
43143;DHT22;28750;59.842;17.584;2023-01-01T15:47:24;-1.50;99.90
43143;DHT22;28750;59.842;17.584;2023-01-01T15:50:20;-1.60;99.90
43143;DHT22;28750;59.842;17.584;2023-01-01T15:52:51;-1.60;99.90
43143;DHT22;28750;59.842;17.584;2023-01-01T15:55:19;-1.60;99.90
43143;DHT22;28750;59.842;17.584;2023-01-01T15:57:47;-1.60;99.90
43143;DHT22;28750;59.842;17.584;2023-01-01T16:00:26;-1.70;99.90
43143;DHT22;28750;59.842;17.584;2023-01-01T16:03:11;-1.60;99.90
43143;DHT22;28750;59.842;17.584;2023-01-01T16:05:46;-1.60;99.90
43143;DHT22;28750;59.842;17.584;2023-01-01T16:08:15;-1.50;99.90
43143;DHT22;28750;59.842;17.584;2023-01-01T16:10:44;-1.50;99.90
43143;DHT22;28750;59.842;17.584;2023-01-01T16:13:11;-1.60;99.90
43143;DHT22;28750;59.842;17.584;2023-01-01T16:18:19;-1.70;99.90
43143;DHT22;28750;59.842;17.584;2023-01-01T16:20:47;-1.70;99.90
43143;DHT22;28750;59.842;17.584;2023-01-01T16:23:15;-1.80;99.90
43143;DHT22;28750;59.842;17.584;2023-01-01T16:25:42;-1.80;99.90
43143;DHT22;28750;59.842;17.584;2023-01-01T16:28:09;-1.70;99.90
43143;DHT22;28750;59.842;17.584;2023-01-01T16:30:36;-1.80;99.90
43143;DHT22;28750;59.842;17.584;2023-01-01T16:33:15;-1.90;99.90
43143;DHT22;28750;59.842;17.584;2023-01-01T16:35:43;-1.80;99.90
43143;DHT22;28750;59.842;17.584;2023-01-01T16:38:10;-2.00;99.90
43143;DHT22;28750;59.842;17.584;2023-01-01T16:40:37;-2.10;99.90
43143;DHT22;28750;59.842;17.584;2023-01-01T16:43:05;-2.30;99.90
43143;DHT22;28750;59.842;17.584;2023-01-01T16:45:34;-2.30;99.90
43143;DHT22;28750;59.842;17.584;2023-01-01T16:48:01;-2.20;99.90
43143;DHT22;28750;59.842;17.584;2023-01-01T16:50:28;-2.30;99.90
43143;DHT22;28750;59.842;17.584;2023-01-01T16:52:55;-2.10;99.90
43143;DHT22;28750;59.842;17.584;2023-01-01T16:55:22;-2.00;99.90
43143;DHT22;28750;59.842;17.584;2023-01-01T16:57:49;-2.00;99.90
43143;DHT22;28750;59.842;17.584;2023-01-01T17:00:16;-2.00;99.90
43143;DHT22;28750;59.842;17.584;2023-01-01T17:02:43;-2.10;99.90
43143;DHT22;28750;59.842;17.584;2023-01-01T17:05:10;-2.30;99.90
43143;DHT22;28750;59.842;17.584;2023-01-01T17:07:37;-2.40;99.90
43143;DHT22;28750;59.842;17.584;2023-01-01T17:10:04;-2.40;99.90
43143;DHT22;28750;59.842;17.584;2023-01-01T17:12:31;-2.30;99.90
43143;DHT22;28750;59.842;17.584;2023-01-01T17:14:58;-2.40;99.90
43143;DHT22;28750;59.842;17.584;2023-01-01T17:17:25;-2.40;99.90
43143;DHT22;28750;59.842;17.584;2023-01-01T17:19:52;-2.60;99.90
43143;DHT22;28750;59.842;17.584;2023-01-01T17:22:19;-2.80;99.90
43143;DHT22;28750;59.842;17.584;2023-01-01T17:24:46;-2.70;99.90
43143;DHT22;28750;59.842;17.584;2023-01-01T17:27:13;-2.90;99.90
43143;DHT22;28750;59.842;17.584;2023-01-01T17:29:39;-2.60;99.90
43143;DHT22;28750;59.842;17.584;2023-01-01T17:32:06;-2.50;99.90
43143;DHT22;28750;59.842;17.584;2023-01-01T17:34:33;-2.40;99.90
43143;DHT22;28750;59.842;17.584;2023-01-01T17:37:00;-2.50;99.90
43143;DHT22;28750;59.842;17.584;2023-01-01T17:39:27;-2.60;99.90
43143;DHT22;28750;59.842;17.584;2023-01-01T17:41:54;-2.60;99.90
43143;DHT22;28750;59.842;17.584;2023-01-01T17:44:22;-2.70;99.90
43143;DHT22;28750;59.842;17.584;2023-01-01T17:46:49;-2.90;99.90
43143;DHT22;28750;59.842;17.584;2023-01-01T17:49:16;-3.10;99.90
43143;DHT22;28750;59.842;17.584;2023-01-01T17:51:43;-3.00;99.90
43143;DHT22;28750;59.842;17.584;2023-01-01T17:54:10;-3.00;99.90
43143;DHT22;28750;59.842;17.584;2023-01-01T17:56:38;-2.90;99.90
43143;DHT22;28750;59.842;17.584;2023-01-01T17:59:06;-2.80;99.90
43143;DHT22;28750;59.842;17.584;2023-01-01T18:01:33;-2.80;99.90
43143;DHT22;28750;59.842;17.584;2023-01-01T18:04:05;-2.70;99.90
43143;DHT22;28750;59.842;17.584;2023-01-01T18:06:34;-2.70;99.90
43143;DHT22;28750;59.842;17.584;2023-01-01T18:09:04;-2.90;99.90
43143;DHT22;28750;59.842;17.584;2023-01-01T18:11:32;-3.10;99.90
43143;DHT22;28750;59.842;17.584;2023-01-01T18:14:00;-3.00;99.90
43143;DHT22;28750;59.842;17.584;2023-01-01T18:16:28;-3.00;99.90